sensor_id;sensor_type;location;lat;lon;timestamp;pressure;altitude;pressure_sealevel;temperature;humidity
11198;BME280;5655;48.744;9.162;2023-02-13T00:01:09;97977.00;;;5.81;100.00
11198;BME280;5655;48.744;9.162;2023-02-13T00:03:35;97974.63;;;5.79;100.00
11198;BME280;5655;48.744;9.162;2023-02-13T00:06:00;97967.81;;;5.41;100.00
11198;BME280;5655;48.744;9.162;2023-02-13T00:08:26;97961.41;;;5.61;100.00
11198;BME280;5655;48.744;9.162;2023-02-13T00:10:51;97976.75;;;5.64;100.00
11198;BME280;5655;48.744;9.162;2023-02-13T00:13:16;97976.75;;;5.64;100.00
11198;BME280;5655;48.744;9.162;2023-02-13T00:15:41;97964.53;;;5.63;100.00
11198;BME280;5655;48.744;9.162;2023-02-13T00:18:07;97966.72;;;5.61;100.00
11198;BME280;5655;48.744;9.162;2023-02-13T00:20:32;97964.94;;;5.56;100.00
11198;BME280;5655;48.744;9.162;2023-02-13T00:22:58;97965.34;;;5.63;100.00
11198;BME280;5655;48.744;9.162;2023-02-13T00:25:23;97970.81;;;5.53;100.00
11198;BME280;5655;48.744;9.162;2023-02-13T00:27:52;97967.31;;;5.71;100.00
11198;BME280;5655;48.744;9.162;2023-02-13T00:30:18;97973.78;;;5.52;100.00
11198;BME280;5655;48.744;9.162;2023-02-13T00:32:44;97969.81;;;5.49;100.00
11198;BME280;5655;48.744;9.162;2023-02-13T00:35:10;97967.47;;;5.47;100.00
11198;BME280;5655;48.744;9.162;2023-02-13T00:37:35;97973.63;;;5.43;100.00
11198;BME280;5655;48.744;9.162;2023-02-13T00:40:00;97965.22;;;5.36;100.00
11198;BME280;5655;48.744;9.162;2023-02-13T00:42:26;97965.41;;;5.26;100.00
11198;BME280;5655;48.744;9.162;2023-02-13T00:44:52;97963.75;;;5.30;100.00
11198;BME280;5655;48.744;9.162;2023-02-13T00:47:18;97969.53;;;5.32;100.00
11198;BME280;5655;48.744;9.162;2023-02-13T00:49:44;97966.69;;;5.10;100.00
11198;BME280;5655;48.744;9.162;2023-02-13T00:52:09;97967.97;;;5.31;100.00
11198;BME280;5655;48.744;9.162;2023-02-13T00:54:34;97962.25;;;4.86;100.00
11198;BME280;5655;48.744;9.162;2023-02-13T00:57:00;97969.13;;;5.25;100.00
11198;BME280;5655;48.744;9.162;2023-02-13T00:59:25;97974.38;;;5.30;100.00
11198;BME280;5655;48.744;9.162;2023-02-13T01:01:51;97969.53;;;5.32;100.00
11198;BME280;5655;48.744;9.162;2023-02-13T01:04:16;97961.59;;;5.32;100.00
11198;BME280;5655;48.744;9.162;2023-02-13T01:06:41;97956.78;;;5.34;100.00
11198;BME280;5655;48.744;9.162;2023-02-13T01:09:07;97955.78;;;5.30;100.00
11198;BME280;5655;48.744;9.162;2023-02-13T01:11:32;97954.06;;;5.01;100.00
11198;BME280;5655;48.744;9.162;2023-02-13T01:13:57;97956.31;;;5.13;100.00
11198;BME280;5655;48.744;9.162;2023-02-13T01:16:23;97965.03;;;5.14;100.00
11198;BME280;5655;48.744;9.162;2023-02-13T01:18:48;97965.91;;;5.09;100.00
11198;BME280;5655;48.744;9.162;2023-02-13T01:21:19;97958.44;;;5.30;100.00
11198;BME280;5655;48.744;9.162;2023-02-13T01:23:45;97962.53;;;5.03;100.00
11198;BME280;5655;48.744;9.162;2023-02-13T01:26:17;97958.59;;;5.20;100.00
11198;BME280;5655;48.744;9.162;2023-02-13T01:28:43;97941.56;;;4.46;100.00
11198;BME280;5655;48.744;9.162;2023-02-13T01:31:08;97952.13;;;4.70;100.00
11198;BME280;5655;48.744;9.162;2023-02-13T01:33:34;97945.59;;;4.81;100.00
11198;BME280;5655;48.744;9.162;2023-02-13T01:36:08;97947.84;;;5.11;100.00
11198;BME280;5655;48.744;9.162;2023-02-13T01:38:33;97944.38;;;4.92;100.00
11198;BME280;5655;48.744;9.162;2023-02-13T01:40:59;97944.50;;;4.63;100.00
11198;BME280;5655;48.744;9.162;2023-02-13T01:43:45;97937.06;;;4.65;100.00
11198;BME280;5655;48.744;9.162;2023-02-13T01:46:14;97935.66;;;4.73;100.00
11198;BME280;5655;48.744;9.162;2023-02-13T01:48:40;97934.66;;;4.45;100.00
11198;BME280;5655;48.744;9.162;2023-02-13T01:51:10;97932.25;;;4.67;100.00
11198;BME280;5655;48.744;9.162;2023-02-13T01:53:41;97940.16;;;4.72;100.00
11198;BME280;5655;48.744;9.162;2023-02-13T01:56:20;97934.28;;;4.75;100.00
11198;BME280;5655;48.744;9.162;2023-02-13T01:58:50;97928.13;;;4.61;100.00
11198;BME280;5655;48.744;9.162;2023-02-13T02:01:17;97925.31;;;4.29;100.00
11198;BME280;5655;48.744;9.162;2023-02-13T02:03:55;97944.16;;;4.88;100.00
11198;BME280;5655;48.744;9.162;2023-02-13T02:06:27;97938.06;;;4.88;100.00
11198;BME280;5655;48.744;9.162;2023-02-13T02:08:55;97944.91;;;4.94;100.00
11198;BME280;5655;48.744;9.162;2023-02-13T02:11:51;97939.44;;;4.85;100.00
11198;BME280;5655;48.744;9.162;2023-02-13T02:14:17;97943.53;;;4.78;100.00
11198;BME280;5655;48.744;9.162;2023-02-13T02:16:43;97944.59;;;4.77;100.00
11198;BME280;5655;48.744;9.162;2023-02-13T02:19:15;97949.13;;;4.95;100.00
11198;BME280;5655;48.744;9.162;2023-02-13T02:21:56;97947.81;;;4.92;100.00
11198;BME280;5655;48.744;9.162;2023-02-13T02:30:24;97941.25;;;4.90;100.00
11198;BME280;5655;48.744;9.162;2023-02-13T02:33:05;97942.38;;;4.84;100.00
11198;BME280;5655;48.744;9.162;2023-02-13T02:35:45;97936.84;;;4.80;100.00
11198;BME280;5655;48.744;9.162;2023-02-13T02:38:23;97940.53;;;4.66;100.00
11198;BME280;5655;48.744;9.162;2023-02-13T02:49:27;97931.84;;;4.60;100.00
11198;BME280;5655;48.744;9.162;2023-02-13T02:52:17;97935.38;;;4.74;100.00
11198;BME280;5655;48.744;9.162;2023-02-13T02:55:08;97937.50;;;4.72;100.00
11198;BME280;5655;48.744;9.162;2023-02-13T02:57:40;97933.97;;;4.58;100.00
11198;BME280;5655;48.744;9.162;2023-02-13T03:00:26;97938.84;;;4.51;100.00
11198;BME280;5655;48.744;9.162;2023-02-13T03:03:16;97927.97;;;4.52;100.00
11198;BME280;5655;48.744;9.162;2023-02-13T03:06:03;97935.47;;;4.45;100.00
11198;BME280;5655;48.744;9.162;2023-02-13T03:08:37;97932.44;;;4.33;100.00
11198;BME280;5655;48.744;9.162;2023-02-13T03:11:21;97931.16;;;4.31;100.00
11198;BME280;5655;48.744;9.162;2023-02-13T03:14:08;97939.84;;;4.55;100.00
11198;BME280;5655;48.744;9.162;2023-02-13T03:16:35;97939.00;;;4.36;100.00
11198;BME280;5655;48.744;9.162;2023-02-13T03:19:37;97946.59;;;4.66;100.00
11198;BME280;5655;48.744;9.162;2023-02-13T03:22:50;97946.84;;;4.70;100.00
11198;BME280;5655;48.744;9.162;2023-02-13T03:28:39;97940.78;;;4.64;100.00
11198;BME280;5655;48.744;9.162;2023-02-13T03:31:41;97942.88;;;4.67;100.00
11198;BME280;5655;48.744;9.162;2023-02-13T03:34:16;97946.09;;;4.64;100.00
11198;BME280;5655;48.744;9.162;2023-02-13T03:36:56;97951.88;;;4.66;100.00
11198;BME280;5655;48.744;9.162;2023-02-13T03:39:59;97949.38;;;4.56;100.00
11198;BME280;5655;48.744;9.162;2023-02-13T03:42:36;97941.34;;;4.19;100.00
11198;BME280;5655;48.744;9.162;2023-02-13T03:45:17;97952.31;;;4.54;100.00
11198;BME280;5655;48.744;9.162;2023-02-13T03:48:03;97954.06;;;4.40;100.00
11198;BME280;5655;48.744;9.162;2023-02-13T03:50:35;97953.78;;;4.42;100.00
11198;BME280;5655;48.744;9.162;2023-02-13T03:53:07;97950.56;;;4.45;100.00
11198;BME280;5655;48.744;9.162;2023-02-13T03:55:36;97951.88;;;4.24;100.00
11198;BME280;5655;48.744;9.162;2023-02-13T03:58:29;97964.59;;;4.27;100.00
11198;BME280;5655;48.744;9.162;2023-02-13T04:01:17;97954.53;;;4.24;100.00
11198;BME280;5655;48.744;9.162;2023-02-13T04:03:44;97955.22;;;4.10;100.00
11198;BME280;5655;48.744;9.162;2023-02-13T04:06:15;97959.19;;;4.32;100.00
11198;BME280;5655;48.744;9.162;2023-02-13T04:08:44;97964.53;;;4.08;100.00
11198;BME280;5655;48.744;9.162;2023-02-13T04:11:16;97971.69;;;4.31;100.00
11198;BME280;5655;48.744;9.162;2023-02-13T04:13:51;97976.41;;;4.34;100.00
11198;BME280;5655;48.744;9.162;2023-02-13T04:16:41;97973.94;;;4.43;100.00
11198;BME280;5655;48.744;9.162;2023-02-13T04:19:07;97979.38;;;5.31;100.00
11198;BME280;5655;48.744;9.162;2023-02-13T04:21:35;97978.94;;;5.75;100.00
11198;BME280;5655;48.744;9.162;2023-02-13T04:24:01;97978.97;;;5.06;100.00
11198;BME280;5655;48.744;9.162;2023-02-13T04:26:37;97982.88;;;5.27;100.00
11198;BME280;5655;48.744;9.162;2023-02-13T04:29:03;97985.34;;;4.86;100.00
11198;BME280;5655;48.744;9.162;2023-02-13T04:31:29;97980.88;;;4.81;100.00
11198;BME280;5655;48.744;9.162;2023-02-13T04:33:54;97984.19;;;4.73;100.00
11198;BME280;5655;48.744;9.162;2023-02-13T04:36:19;97982.66;;;4.67;100.00
11198;BME280;5655;48.744;9.162;2023-02-13T04:38:45;97979.56;;;4.60;100.00
11198;BME280;5655;48.744;9.162;2023-02-13T04:41:11;97968.53;;;4.53;100.00
11198;BME280;5655;48.744;9.162;2023-02-13T04:43:36;97976.06;;;4.41;100.00
11198;BME280;5655;48.744;9.162;2023-02-13T04:46:02;97972.94;;;4.39;100.00
11198;BME280;5655;48.744;9.162;2023-02-13T04:48:27;97965.59;;;4.31;100.00
11198;BME280;5655;48.744;9.162;2023-02-13T04:50:52;97980.72;;;4.30;100.00
11198;BME280;5655;48.744;9.162;2023-02-13T04:53:18;97972.00;;;4.25;100.00
11198;BME280;5655;48.744;9.162;2023-02-13T04:55:43;97978.38;;;4.24;100.00
11198;BME280;5655;48.744;9.162;2023-02-13T04:58:08;97988.97;;;4.24;100.00
11198;BME280;5655;48.744;9.162;2023-02-13T05:00:34;97978.69;;;4.22;100.00
11198;BME280;5655;48.744;9.162;2023-02-13T05:03:07;97977.09;;;4.45;100.00
11198;BME280;5655;48.744;9.162;2023-02-13T05:05:33;97991.41;;;4.20;100.00
11198;BME280;5655;48.744;9.162;2023-02-13T05:07:58;97977.41;;;4.15;100.00
11198;BME280;5655;48.744;9.162;2023-02-13T05:10:23;97982.66;;;4.20;100.00
11198;BME280;5655;48.744;9.162;2023-02-13T05:12:49;97986.38;;;4.19;100.00
11198;BME280;5655;48.744;9.162;2023-02-13T05:15:14;97984.31;;;4.16;100.00
11198;BME280;5655;48.744;9.162;2023-02-13T05:17:42;97976.41;;;4.34;100.00
11198;BME280;5655;48.744;9.162;2023-02-13T05:20:08;97973.69;;;4.16;100.00
11198;BME280;5655;48.744;9.162;2023-02-13T05:22:33;97982.19;;;4.18;100.00
11198;BME280;5655;48.744;9.162;2023-02-13T05:25:17;97977.38;;;4.20;100.00
11198;BME280;5655;48.744;9.162;2023-02-13T05:27:42;97979.53;;;4.18;100.00
11198;BME280;5655;48.744;9.162;2023-02-13T05:30:08;97979.47;;;4.23;100.00
11198;BME280;5655;48.744;9.162;2023-02-13T05:32:33;97981.91;;;3.90;100.00
11198;BME280;5655;48.744;9.162;2023-02-13T05:34:59;97974.06;;;4.09;100.00
11198;BME280;5655;48.744;9.162;2023-02-13T05:37:24;97980.69;;;4.06;100.00
11198;BME280;5655;48.744;9.162;2023-02-13T05:39:49;97977.16;;;4.16;100.00
11198;BME280;5655;48.744;9.162;2023-02-13T05:42:15;97983.19;;;4.22;100.00
11198;BME280;5655;48.744;9.162;2023-02-13T05:44:40;97978.69;;;4.22;100.00
11198;BME280;5655;48.744;9.162;2023-02-13T05:47:05;97985.03;;;4.21;100.00
11198;BME280;5655;48.744;9.162;2023-02-13T05:49:31;97971.19;;;4.05;100.00
11198;BME280;5655;48.744;9.162;2023-02-13T05:51:56;97981.38;;;4.17;100.00
11198;BME280;5655;48.744;9.162;2023-02-13T05:54:21;97976.88;;;4.18;100.00
11198;BME280;5655;48.744;9.162;2023-02-13T05:56:47;97978.44;;;4.19;100.00
11198;BME280;5655;48.744;9.162;2023-02-13T05:59:12;97975.16;;;4.03;100.00
11198;BME280;5655;48.744;9.162;2023-02-13T06:01:38;97972.78;;;4.01;100.00
11198;BME280;5655;48.744;9.162;2023-02-13T06:04:03;97965.28;;;3.85;100.00
11198;BME280;5655;48.744;9.162;2023-02-13T06:06:29;97968.63;;;3.95;100.00
11198;BME280;5655;48.744;9.162;2023-02-13T06:08:54;97964.16;;;3.62;100.00
11198;BME280;5655;48.744;9.162;2023-02-13T06:11:20;97967.34;;;3.59;100.00
11198;BME280;5655;48.744;9.162;2023-02-13T06:13:45;97967.53;;;3.67;100.00
11198;BME280;5655;48.744;9.162;2023-02-13T06:16:11;97975.78;;;3.66;100.00
11198;BME280;5655;48.744;9.162;2023-02-13T06:18:37;97970.94;;;3.73;100.00
11198;BME280;5655;48.744;9.162;2023-02-13T06:21:03;97968.81;;;3.75;100.00
11198;BME280;5655;48.744;9.162;2023-02-13T06:23:29;97976.00;;;3.70;100.00
11198;BME280;5655;48.744;9.162;2023-02-13T06:25:54;97974.66;;;3.72;100.00
11198;BME280;5655;48.744;9.162;2023-02-13T06:28:20;97974.59;;;3.48;100.00
11198;BME280;5655;48.744;9.162;2023-02-13T06:30:46;97982.09;;;3.70;100.00
11198;BME280;5655;48.744;9.162;2023-02-13T06:33:11;97976.25;;;3.39;100.00
11198;BME280;5655;48.744;9.162;2023-02-13T06:35:37;97975.47;;;3.39;100.00
11198;BME280;5655;48.744;9.162;2023-02-13T06:38:02;97973.41;;;3.31;100.00
11198;BME280;5655;48.744;9.162;2023-02-13T06:40:27;97981.41;;;3.20;100.00
11198;BME280;5655;48.744;9.162;2023-02-13T06:42:53;97981.78;;;3.43;100.00
11198;BME280;5655;48.744;9.162;2023-02-13T06:45:18;97976.75;;;3.02;100.00
11198;BME280;5655;48.744;9.162;2023-02-13T06:47:45;97975.63;;;3.18;100.00
11198;BME280;5655;48.744;9.162;2023-02-13T06:50:12;97982.97;;;3.27;100.00
11198;BME280;5655;48.744;9.162;2023-02-13T06:52:38;97976.75;;;3.02;100.00
11198;BME280;5655;48.744;9.162;2023-02-13T06:55:04;97977.19;;;3.19;100.00
11198;BME280;5655;48.744;9.162;2023-02-13T06:57:30;97983.88;;;3.07;100.00
11198;BME280;5655;48.744;9.162;2023-02-13T06:59:58;97993.19;;;2.99;100.00
11198;BME280;5655;48.744;9.162;2023-02-13T07:02:23;97989.13;;;3.17;100.00
11198;BME280;5655;48.744;9.162;2023-02-13T07:04:49;97992.03;;;3.15;100.00
11198;BME280;5655;48.744;9.162;2023-02-13T07:07:14;97994.78;;;3.00;100.00
11198;BME280;5655;48.744;9.162;2023-02-13T07:09:39;97998.19;;;3.06;100.00
11198;BME280;5655;48.744;9.162;2023-02-13T07:12:05;98000.06;;;3.00;100.00
11198;BME280;5655;48.744;9.162;2023-02-13T07:14:31;97985.84;;;2.86;100.00
11198;BME280;5655;48.744;9.162;2023-02-13T07:16:56;97989.28;;;2.87;100.00
11198;BME280;5655;48.744;9.162;2023-02-13T07:19:22;98000.91;;;2.91;100.00
11198;BME280;5655;48.744;9.162;2023-02-13T07:21:47;98007.41;;;3.13;100.00
11198;BME280;5655;48.744;9.162;2023-02-13T07:24:12;98003.16;;;3.12;100.00
11198;BME280;5655;48.744;9.162;2023-02-13T07:26:38;98002.72;;;2.95;100.00
11198;BME280;5655;48.744;9.162;2023-02-13T07:29:03;98012.47;;;3.05;100.00
11198;BME280;5655;48.744;9.162;2023-02-13T07:31:32;98015.28;;;3.24;100.00
11198;BME280;5655;48.744;9.162;2023-02-13T07:33:58;98014.19;;;3.25;100.00
11198;BME280;5655;48.744;9.162;2023-02-13T07:36:23;98023.47;;;3.27;100.00
11198;BME280;5655;48.744;9.162;2023-02-13T07:38:48;98026.28;;;3.41;100.00
11198;BME280;5655;48.744;9.162;2023-02-13T07:41:13;98025.72;;;3.44;100.00
11198;BME280;5655;48.744;9.162;2023-02-13T07:43:39;98029.06;;;3.54;100.00
11198;BME280;5655;48.744;9.162;2023-02-13T07:46:04;98019.72;;;3.67;100.00
11198;BME280;5655;48.744;9.162;2023-02-13T07:48:30;98032.31;;;3.80;100.00
11198;BME280;5655;48.744;9.162;2023-02-13T07:51:00;98033.56;;;3.54;100.00
11198;BME280;5655;48.744;9.162;2023-02-13T07:53:26;98030.59;;;3.94;100.00
11198;BME280;5655;48.744;9.162;2023-02-13T07:55:51;98029.63;;;3.51;100.00
11198;BME280;5655;48.744;9.162;2023-02-13T07:58:17;98038.38;;;3.52;100.00
11198;BME280;5655;48.744;9.162;2023-02-13T08:00:42;98029.03;;;3.59;100.00
11198;BME280;5655;48.744;9.162;2023-02-13T08:03:08;98032.81;;;3.87;100.00
11198;BME280;5655;48.744;9.162;2023-02-13T08:05:34;98034.03;;;3.66;100.00
11198;BME280;5655;48.744;9.162;2023-02-13T08:07:59;98036.06;;;3.79;100.00
11198;BME280;5655;48.744;9.162;2023-02-13T08:10:25;98031.03;;;3.78;100.00
11198;BME280;5655;48.744;9.162;2023-02-13T08:13:11;98025.28;;;3.99;100.00
11198;BME280;5655;48.744;9.162;2023-02-13T08:15:37;98029.19;;;3.73;100.00
11198;BME280;5655;48.744;9.162;2023-02-13T08:18:02;98032.38;;;3.75;100.00
11198;BME280;5655;48.744;9.162;2023-02-13T08:20:27;98028.00;;;3.89;100.00
11198;BME280;5655;48.744;9.162;2023-02-13T08:22:53;98028.19;;;3.69;100.00
11198;BME280;5655;48.744;9.162;2023-02-13T08:25:18;98025.22;;;4.04;100.00
11198;BME280;5655;48.744;9.162;2023-02-13T08:27:44;98023.59;;;4.08;100.00
11198;BME280;5655;48.744;9.162;2023-02-13T08:30:10;98028.97;;;4.27;100.00
11198;BME280;5655;48.744;9.162;2023-02-13T08:32:36;98032.34;;;4.09;100.00
11198;BME280;5655;48.744;9.162;2023-02-13T08:35:01;98023.44;;;4.24;100.00
11198;BME280;5655;48.744;9.162;2023-02-13T08:37:26;98026.34;;;4.51;100.00
11198;BME280;5655;48.744;9.162;2023-02-13T08:39:52;98026.84;;;4.29;100.00
11198;BME280;5655;48.744;9.162;2023-02-13T08:42:17;98019.16;;;4.28;100.00
11198;BME280;5655;48.744;9.162;2023-02-13T08:44:43;98017.41;;;4.42;100.00
11198;BME280;5655;48.744;9.162;2023-02-13T08:47:08;98016.94;;;4.40;100.00
11198;BME280;5655;48.744;9.162;2023-02-13T08:49:34;98015.53;;;4.19;100.00
11198;BME280;5655;48.744;9.162;2023-02-13T08:52:00;98015.22;;;4.25;100.00
11198;BME280;5655;48.744;9.162;2023-02-13T08:54:25;98010.47;;;4.46;100.00
11198;BME280;5655;48.744;9.162;2023-02-13T08:56:52;98010.53;;;4.41;100.00
11198;BME280;5655;48.744;9.162;2023-02-13T08:59:17;98010.44;;;4.51;100.00
11198;BME280;5655;48.744;9.162;2023-02-13T09:01:43;98013.72;;;4.85;100.00
11198;BME280;5655;48.744;9.162;2023-02-13T09:04:08;98014.25;;;4.87;100.00
11198;BME280;5655;48.744;9.162;2023-02-13T09:06:34;98011.66;;;4.82;100.00
11198;BME280;5655;48.744;9.162;2023-02-13T09:08:59;98014.97;;;5.12;100.00
11198;BME280;5655;48.744;9.162;2023-02-13T09:11:25;98025.94;;;5.42;100.00
11198;BME280;5655;48.744;9.162;2023-02-13T09:13:53;98018.78;;;5.43;100.00
11198;BME280;5655;48.744;9.162;2023-02-13T09:16:19;98017.81;;;5.53;100.00
11198;BME280;5655;48.744;9.162;2023-02-13T09:18:51;98020.19;;;6.05;100.00
11198;BME280;5655;48.744;9.162;2023-02-13T09:21:18;98023.19;;;5.66;100.00
11198;BME280;5655;48.744;9.162;2023-02-13T09:23:44;98027.47;;;6.00;100.00
11198;BME280;5655;48.744;9.162;2023-02-13T09:26:11;98031.56;;;5.92;100.00
11198;BME280;5655;48.744;9.162;2023-02-13T09:28:38;98016.75;;;6.18;100.00
11198;BME280;5655;48.744;9.162;2023-02-13T09:31:08;98033.03;;;6.44;100.00
11198;BME280;5655;48.744;9.162;2023-02-13T09:33:34;98031.78;;;6.55;100.00
11198;BME280;5655;48.744;9.162;2023-02-13T09:36:07;98031.47;;;6.98;100.00
11198;BME280;5655;48.744;9.162;2023-02-13T09:38:33;98042.13;;;6.84;100.00
11198;BME280;5655;48.744;9.162;2023-02-13T09:41:03;98034.19;;;7.20;100.00
11198;BME280;5655;48.744;9.162;2023-02-13T09:43:31;98032.13;;;7.03;100.00
11198;BME280;5655;48.744;9.162;2023-02-13T09:46:04;98033.13;;;7.43;100.00
11198;BME280;5655;48.744;9.162;2023-02-13T09:48:35;98032.06;;;7.66;100.00
11198;BME280;5655;48.744;9.162;2023-02-13T09:51:02;98037.28;;;7.94;100.00
11198;BME280;5655;48.744;9.162;2023-02-13T09:53:29;98032.97;;;7.84;100.00
11198;BME280;5655;48.744;9.162;2023-02-13T09:58:49;98035.91;;;8.27;100.00
11198;BME280;5655;48.744;9.162;2023-02-13T10:01:30;98037.97;;;8.08;100.00
11198;BME280;5655;48.744;9.162;2023-02-13T10:04:14;98041.66;;;8.43;100.00
11198;BME280;5655;48.744;9.162;2023-02-13T10:06:49;98038.56;;;8.27;100.00
11198;BME280;5655;48.744;9.162;2023-02-13T10:09:32;98042.34;;;8.57;100.00
11198;BME280;5655;48.744;9.162;2023-02-13T10:12:21;98041.97;;;8.41;100.00
11198;BME280;5655;48.744;9.162;2023-02-13T10:15:06;98038.81;;;8.39;100.00
11198;BME280;5655;48.744;9.162;2023-02-13T10:17:42;98037.03;;;8.65;100.00
11198;BME280;5655;48.744;9.162;2023-02-13T10:20:26;98038.59;;;9.15;100.00
11198;BME280;5655;48.744;9.162;2023-02-13T10:23:15;98036.72;;;9.49;100.00
11198;BME280;5655;48.744;9.162;2023-02-13T10:30:58;98033.44;;;9.70;100.00
11198;BME280;5655;48.744;9.162;2023-02-13T10:33:30;98031.53;;;9.96;100.00
11198;BME280;5655;48.744;9.162;2023-02-13T10:36:10;98030.72;;;10.13;100.00
11198;BME280;5655;48.744;9.162;2023-02-13T10:39:29;98035.59;;;9.93;100.00
11198;BME280;5655;48.744;9.162;2023-02-13T10:58:11;98018.59;;;11.20;100.00
11198;BME280;5655;48.744;9.162;2023-02-13T11:03:41;98002.63;;;11.45;100.00
11198;BME280;5655;48.744;9.162;2023-02-13T11:06:10;98001.91;;;11.56;100.00
11198;BME280;5655;48.744;9.162;2023-02-13T11:08:40;98009.22;;;11.06;100.00
11198;BME280;5655;48.744;9.162;2023-02-13T11:11:30;97999.28;;;11.48;100.00
11198;BME280;5655;48.744;9.162;2023-02-13T11:14:13;97993.50;;;11.99;100.00
11198;BME280;5655;48.744;9.162;2023-02-13T11:19:24;98001.34;;;11.51;100.00
11198;BME280;5655;48.744;9.162;2023-02-13T11:21:53;97994.50;;;11.95;100.00
11198;BME280;5655;48.744;9.162;2023-02-13T11:24:22;97991.94;;;11.98;100.00
11198;BME280;5655;48.744;9.162;2023-02-13T11:27:06;97996.03;;;12.28;100.00
11198;BME280;5655;48.744;9.162;2023-02-13T11:29:35;97998.06;;;12.56;100.00
11198;BME280;5655;48.744;9.162;2023-02-13T11:32:17;97991.09;;;12.31;100.00
11198;BME280;5655;48.744;9.162;2023-02-13T11:34:44;98000.75;;;12.44;100.00
11198;BME280;5655;48.744;9.162;2023-02-13T11:39:39;97996.72;;;12.74;100.00
11198;BME280;5655;48.744;9.162;2023-02-13T11:42:16;98004.78;;;12.86;100.00
11198;BME280;5655;48.744;9.162;2023-02-13T11:44:48;97998.94;;;12.36;100.00
11198;BME280;5655;48.744;9.162;2023-02-13T11:47:14;97989.88;;;13.01;100.00
11198;BME280;5655;48.744;9.162;2023-02-13T11:49:44;97993.47;;;12.44;100.00
11198;BME280;5655;48.744;9.162;2023-02-13T11:52:23;97982.44;;;13.34;100.00
11198;BME280;5655;48.744;9.162;2023-02-13T11:55:02;97999.03;;;13.64;100.00
11198;BME280;5655;48.744;9.162;2023-02-13T11:57:35;97990.13;;;12.71;100.00
11198;BME280;5655;48.744;9.162;2023-02-13T12:00:28;97986.59;;;13.07;100.00
11198;BME280;5655;48.744;9.162;2023-02-13T12:03:01;97983.72;;;12.52;100.00
11198;BME280;5655;48.744;9.162;2023-02-13T12:05:28;97975.88;;;13.20;100.00
11198;BME280;5655;48.744;9.162;2023-02-13T12:07:59;97983.13;;;13.71;100.00
11198;BME280;5655;48.744;9.162;2023-02-13T12:10:29;97983.91;;;13.32;100.00
11198;BME280;5655;48.744;9.162;2023-02-13T12:15:29;97984.09;;;13.94;100.00
11198;BME280;5655;48.744;9.162;2023-02-13T12:20:33;97977.88;;;13.62;100.00
11198;BME280;5655;48.744;9.162;2023-02-13T12:25:47;97982.75;;;14.00;100.00
11198;BME280;5655;48.744;9.162;2023-02-13T12:29:00;97980.25;;;13.52;100.00
11198;BME280;5655;48.744;9.162;2023-02-13T12:39:36;97979.38;;;14.82;100.00
11198;BME280;5655;48.744;9.162;2023-02-13T12:42:26;97972.69;;;14.29;100.00
11198;BME280;5655;48.744;9.162;2023-02-13T12:45:09;97978.81;;;14.57;100.00
11198;BME280;5655;48.744;9.162;2023-02-13T12:50:50;97980.28;;;13.95;100.00
11198;BME280;5655;48.744;9.162;2023-02-13T12:53:34;97971.75;;;14.68;100.00
11198;BME280;5655;48.744;9.162;2023-02-13T13:10:13;97953.78;;;13.26;100.00
11198;BME280;5655;48.744;9.162;2023-02-13T13:12:58;97952.53;;;14.54;100.00
11198;BME280;5655;48.744;9.162;2023-02-13T13:18:26;97959.72;;;14.03;100.00
11198;BME280;5655;48.744;9.162;2023-02-13T13:20:56;97956.13;;;14.42;100.00
11198;BME280;5655;48.744;9.162;2023-02-13T13:23:31;97955.69;;;14.56;100.00
11198;BME280;5655;48.744;9.162;2023-02-13T13:28:53;97948.72;;;13.37;100.00
11198;BME280;5655;48.744;9.162;2023-02-13T13:31:21;97947.16;;;14.70;100.00
11198;BME280;5655;48.744;9.162;2023-02-13T13:33:50;97946.03;;;14.55;100.00
11198;BME280;5655;48.744;9.162;2023-02-13T13:38:50;97947.75;;;14.63;100.00
11198;BME280;5655;48.744;9.162;2023-02-13T13:41:49;97951.38;;;14.86;100.00
11198;BME280;5655;48.744;9.162;2023-02-13T13:49:55;97947.16;;;14.54;100.00
11198;BME280;5655;48.744;9.162;2023-02-13T13:52:31;97946.97;;;14.16;100.00
11198;BME280;5655;48.744;9.162;2023-02-13T13:54:59;97942.91;;;13.78;100.00
11198;BME280;5655;48.744;9.162;2023-02-13T13:57:58;97941.22;;;14.01;100.00
11198;BME280;5655;48.744;9.162;2023-02-13T14:00:27;97941.31;;;14.21;100.00
11198;BME280;5655;48.744;9.162;2023-02-13T14:03:21;97942.78;;;14.02;100.00
11198;BME280;5655;48.744;9.162;2023-02-13T14:06:10;97938.59;;;13.46;100.00
11198;BME280;5655;48.744;9.162;2023-02-13T14:11:06;97952.91;;;13.78;100.00
11198;BME280;5655;48.744;9.162;2023-02-13T14:13:50;97946.94;;;13.56;100.00
11198;BME280;5655;48.744;9.162;2023-02-13T14:16:36;97943.84;;;13.42;100.00
11198;BME280;5655;48.744;9.162;2023-02-13T14:19:02;97946.78;;;12.73;100.00
11198;BME280;5655;48.744;9.162;2023-02-13T14:21:29;97942.53;;;12.60;100.00
11198;BME280;5655;48.744;9.162;2023-02-13T14:23:56;97940.00;;;13.28;100.00
11198;BME280;5655;48.744;9.162;2023-02-13T14:26:29;97949.06;;;13.63;100.00
11198;BME280;5655;48.744;9.162;2023-02-13T14:29:01;97943.22;;;12.81;100.00
11198;BME280;5655;48.744;9.162;2023-02-13T14:31:31;97937.75;;;13.30;100.00
11198;BME280;5655;48.744;9.162;2023-02-13T14:34:04;97941.31;;;12.45;100.00
11198;BME280;5655;48.744;9.162;2023-02-13T14:37:14;97950.47;;;12.93;100.00
11198;BME280;5655;48.744;9.162;2023-02-13T14:42:36;97940.75;;;12.40;100.00
11198;BME280;5655;48.744;9.162;2023-02-13T14:45:04;97933.59;;;12.56;100.00
11198;BME280;5655;48.744;9.162;2023-02-13T14:47:39;97937.66;;;12.38;100.00
11198;BME280;5655;48.744;9.162;2023-02-13T14:50:14;97938.28;;;12.35;100.00
11198;BME280;5655;48.744;9.162;2023-02-13T14:52:43;97942.56;;;12.36;100.00
11198;BME280;5655;48.744;9.162;2023-02-13T14:55:18;97951.50;;;12.27;100.00
11198;BME280;5655;48.744;9.162;2023-02-13T14:57:52;97939.38;;;12.09;100.00
11198;BME280;5655;48.744;9.162;2023-02-13T15:00:24;97938.66;;;12.33;100.00
11198;BME280;5655;48.744;9.162;2023-02-13T15:03:01;97934.13;;;12.13;100.00
11198;BME280;5655;48.744;9.162;2023-02-13T15:05:33;97937.59;;;12.01;100.00
11198;BME280;5655;48.744;9.162;2023-02-13T15:08:13;97929.41;;;11.86;100.00
11198;BME280;5655;48.744;9.162;2023-02-13T15:10:46;97931.78;;;11.99;100.00